createdAt,value
2018-04-28T00:02:51.562Z,14.64
2018-04-28T00:07:53.666Z,14.62
2018-04-28T00:12:55.015Z,14.62
2018-04-28T00:17:56.343Z,14.64
2018-04-28T00:23:03.216Z,14.49
2018-04-28T00:28:11.285Z,14.39
2018-04-28T00:33:18.423Z,14.33
2018-04-28T00:38:19.746Z,14.25
2018-04-28T00:43:22.824Z,14.12
2018-04-28T00:54:09.222Z,13.88
2018-04-28T00:59:27.370Z,13.82
2018-04-28T01:04:46.872Z,13.77
2018-04-28T01:09:59.473Z,13.68
2018-04-28T01:20:44.130Z,13.50
2018-04-28T01:25:45.443Z,13.50
2018-04-28T01:30:51.558Z,13.32
2018-04-28T01:36:03.954Z,13.18
2018-04-28T01:41:20.274Z,13.06
2018-04-28T01:51:58.434Z,13.00
2018-04-28T02:02:42.618Z,12.90
2018-04-28T02:07:45.818Z,12.85
2018-04-28T02:12:48.906Z,12.67
2018-04-28T02:29:34.166Z,12.66
2018-04-28T02:34:40.233Z,12.75
2018-04-28T02:45:21.263Z,12.73
2018-04-28T02:50:34.515Z,12.72
2018-04-28T03:07:29.807Z,12.71
2018-04-28T03:12:31.118Z,12.73
2018-04-28T03:17:45.074Z,12.84
2018-04-28T03:22:48.070Z,13.00
2018-04-28T03:34:29.513Z,12.93
2018-04-28T03:39:30.822Z,12.88
2018-04-28T03:44:43.914Z,12.85
2018-04-28T03:49:45.232Z,12.93
2018-04-28T03:54:46.554Z,13.05
2018-04-28T04:00:06.578Z,13.23
2018-04-28T04:05:08.747Z,13.31
2018-04-28T04:10:19.835Z,13.35
2018-04-28T04:15:35.213Z,13.40
2018-04-28T04:27:08.283Z,13.65
2018-04-28T04:32:16.223Z,13.73
2018-04-28T04:37:20.255Z,13.90
2018-04-28T04:48:16.619Z,14.18
2018-04-28T04:53:18.882Z,14.44
2018-04-28T04:58:26.090Z,14.62
2018-04-28T05:09:46.802Z,14.77
2018-04-28T05:15:05.134Z,14.89
2018-04-28T05:20:37.849Z,15.16
2018-04-28T05:25:57.597Z,15.40
2018-04-28T05:37:39.886Z,15.87
2018-04-28T05:42:59.640Z,16.24
2018-04-28T05:59:25.762Z,16.87
2018-04-28T06:04:39.048Z,16.86
2018-04-28T06:10:05.366Z,16.79
2018-04-28T06:15:31.434Z,17.06
2018-04-28T06:20:38.646Z,17.09
2018-04-28T06:25:40.735Z,17.48
2018-04-28T06:30:42.062Z,17.46
2018-04-28T06:35:43.401Z,17.52
2018-04-28T06:40:44.741Z,17.56
2018-04-28T06:45:46.066Z,18.03
2018-04-28T06:50:47.385Z,18.16
2018-04-28T06:55:49.535Z,18.26
2018-04-28T07:00:50.941Z,18.59
2018-04-28T07:05:52.261Z,18.38
2018-04-28T07:10:53.601Z,18.04
2018-04-28T07:15:55.433Z,18.26
2018-04-28T07:20:56.817Z,18.46
2018-04-28T07:25:58.167Z,18.39
2018-04-28T07:30:59.486Z,18.39
2018-04-28T07:36:01.053Z,18.28
2018-04-28T07:41:02.451Z,18.40
2018-04-28T07:46:03.766Z,18.60
2018-04-28T07:51:05.102Z,18.60
2018-04-28T07:56:07.161Z,18.56
2018-04-28T08:01:08.478Z,19.04
2018-04-28T08:06:09.801Z,19.55
2018-04-28T08:11:11.118Z,19.43
2018-04-28T08:16:12.445Z,18.95
2018-04-28T08:21:13.774Z,19.06
2018-04-28T08:26:15.097Z,19.80
2018-04-28T08:31:16.472Z,20.49
2018-04-28T08:36:17.811Z,20.50
2018-04-28T08:41:19.170Z,20.98
2018-04-28T08:46:20.482Z,21.21
2018-04-28T08:51:21.811Z,21.08
2018-04-28T08:56:23.140Z,21.44
2018-04-28T09:01:24.432Z,21.70
2018-04-28T09:06:25.750Z,21.84
2018-04-28T09:11:27.813Z,22.26
2018-04-28T09:16:29.109Z,22.52
2018-04-28T09:21:30.427Z,22.37
2018-04-28T09:26:31.739Z,22.08
2018-04-28T09:31:33.782Z,22.28
2018-04-28T09:36:35.076Z,22.71
2018-04-28T09:41:36.409Z,23.02
2018-04-28T09:46:38.474Z,23.17
2018-04-28T09:51:40.396Z,23.11
2018-04-28T09:56:41.737Z,22.93
2018-04-28T10:01:43.915Z,22.92
2018-04-28T10:06:46.022Z,22.67
2018-04-28T10:11:48.075Z,22.34
2018-04-28T10:16:49.385Z,22.00
2018-04-28T10:21:50.686Z,22.07
2018-04-28T10:26:52.015Z,22.41
2018-04-28T10:31:53.322Z,22.70
2018-04-28T10:36:54.610Z,22.81
2018-04-28T10:41:55.943Z,22.59
2018-04-28T10:46:57.227Z,22.59
2018-04-28T10:51:58.548Z,22.88
2018-04-28T10:57:00.588Z,22.83
2018-04-28T11:02:01.904Z,22.64
2018-04-28T11:07:03.216Z,22.21
2018-04-28T11:12:04.519Z,22.50
2018-04-28T11:17:06.552Z,22.13
2018-04-28T11:22:08.533Z,22.36
2018-04-28T11:27:10.585Z,22.95
2018-04-28T11:32:11.890Z,23.12
2018-04-28T11:37:13.214Z,23.12
2018-04-28T11:42:15.334Z,22.57
2018-04-28T11:47:17.599Z,21.94
2018-04-28T11:52:18.978Z,21.57
2018-04-28T11:57:20.323Z,21.77
2018-04-28T12:02:22.378Z,22.27
2018-04-28T12:07:23.689Z,22.60
2018-04-28T12:12:25.015Z,23.22
2018-04-28T12:17:26.327Z,23.32
2018-04-28T12:22:27.687Z,22.40
2018-04-28T12:27:29.751Z,22.19
2018-04-28T12:32:31.074Z,22.46
2018-04-28T12:37:33.126Z,22.67
2018-04-28T12:42:41.530Z,22.89
2018-04-28T12:47:43.594Z,23.07
2018-04-28T12:52:44.915Z,22.31
2018-04-28T12:57:46.247Z,22.32
2018-04-28T13:02:47.602Z,22.90
2018-04-28T13:07:49.658Z,22.90
2018-04-28T13:12:50.969Z,23.07
2018-04-28T13:17:52.293Z,23.15
2018-04-28T13:22:54.378Z,22.99
2018-04-28T13:27:55.706Z,23.00
2018-04-28T13:32:57.034Z,22.11
2018-04-28T13:37:58.352Z,21.76
2018-04-28T13:42:59.683Z,22.07
2018-04-28T13:48:01.046Z,22.56
2018-04-28T13:53:03.099Z,23.31
2018-04-28T13:58:04.406Z,22.99
2018-04-28T14:03:05.717Z,22.59
2018-04-28T14:08:07.031Z,22.53
2018-04-28T14:13:09.082Z,22.21
2018-04-28T14:18:10.402Z,22.29
2018-04-28T14:23:11.718Z,22.76
2018-04-28T14:28:13.062Z,23.69
2018-04-28T14:33:14.366Z,23.79
2018-04-28T14:38:15.699Z,23.35
2018-04-28T14:43:17.011Z,22.99
2018-04-28T14:48:18.322Z,22.90
2018-04-28T14:53:19.637Z,22.63
2018-04-28T14:58:21.715Z,22.42
2018-04-28T15:03:23.049Z,22.43
2018-04-28T15:08:24.369Z,22.37
2018-04-28T15:13:25.661Z,22.11
2018-04-28T15:18:26.990Z,21.95
2018-04-28T15:23:28.304Z,21.96
2018-04-28T15:28:29.621Z,22.13
2018-04-28T15:33:30.949Z,22.45
2018-04-28T15:38:32.263Z,22.64
2018-04-28T15:43:34.326Z,22.14
2018-04-28T15:48:35.639Z,22.11
2018-04-28T15:53:36.978Z,22.43
2018-04-28T15:58:38.291Z,22.83
2018-04-28T16:03:39.606Z,22.38
2018-04-28T16:08:40.932Z,22.32
2018-04-28T16:13:42.246Z,22.23
2018-04-28T16:18:43.551Z,21.87
2018-04-28T16:23:44.879Z,21.38
2018-04-28T16:28:46.934Z,21.36
2018-04-28T16:33:48.250Z,21.54
2018-04-28T16:38:49.587Z,22.01
2018-04-28T16:43:50.934Z,22.18
2018-04-28T16:48:52.270Z,22.45
2018-04-28T16:53:53.618Z,22.33
2018-04-28T16:58:55.757Z,22.33
2018-04-28T17:03:57.006Z,22.02
2018-04-28T17:08:58.324Z,21.89
2018-04-28T17:13:59.641Z,21.57
2018-04-28T17:19:00.955Z,21.40
2018-04-28T17:24:02.316Z,21.22
2018-04-28T17:29:03.660Z,21.23
2018-04-28T17:34:05.042Z,21.19
2018-04-28T17:39:07.219Z,20.99
2018-04-28T17:44:08.622Z,20.87
2018-04-28T17:49:10.582Z,20.77
2018-04-28T17:54:12.959Z,20.39
2018-04-28T17:59:14.350Z,20.14
2018-04-28T18:04:15.683Z,19.98
2018-04-28T18:09:17.032Z,19.88
2018-04-28T18:14:18.350Z,19.92
2018-04-28T18:19:19.668Z,19.69
2018-04-28T18:24:21.006Z,19.65
2018-04-28T18:29:22.351Z,19.62
2018-04-28T18:34:23.674Z,19.71
2018-04-28T18:39:24.994Z,19.71
2018-04-28T18:44:26.310Z,19.72
2018-04-28T18:49:27.629Z,19.71
2018-04-28T18:54:28.982Z,19.76
2018-04-28T18:59:30.299Z,19.77
2018-04-28T19:04:31.618Z,19.75
2018-04-28T19:09:32.939Z,19.68
2018-04-28T19:14:34.297Z,19.65
2018-04-28T19:19:35.667Z,19.39
2018-04-28T19:24:36.998Z,19.07
2018-04-28T19:29:38.330Z,19.11
2018-04-28T19:34:39.652Z,19.15
2018-04-28T19:39:40.983Z,19.14
2018-04-28T19:44:42.302Z,19.15
2018-04-28T19:49:43.624Z,19.01
2018-04-28T19:54:45.671Z,19.04
2018-04-28T19:59:47.003Z,19.05
2018-04-28T20:04:48.326Z,19.01
2018-04-28T20:09:50.414Z,18.97
2018-04-28T20:14:51.747Z,18.97
2018-04-28T20:19:53.074Z,18.99
2018-04-28T20:25:09.835Z,19.05
2018-04-28T20:30:11.214Z,18.97
2018-04-28T20:35:13.224Z,18.91
2018-04-28T20:40:14.538Z,18.93
2018-04-28T20:45:16.565Z,18.82
2018-04-28T20:50:17.887Z,18.82
2018-04-28T20:55:19.216Z,18.83
2018-04-28T21:00:21.281Z,18.79
2018-04-28T21:05:22.643Z,18.59
2018-04-28T21:10:23.998Z,18.57
2018-04-28T21:15:25.353Z,18.55
2018-04-28T21:20:26.674Z,18.59
2018-04-28T21:25:27.994Z,18.59
2018-04-28T21:30:29.346Z,18.61
2018-04-28T21:35:30.670Z,18.60
2018-04-28T21:40:32.734Z,18.50
2018-04-28T21:45:34.062Z,18.37
2018-04-28T21:50:36.118Z,18.46
2018-04-28T21:55:37.430Z,18.47
2018-04-28T22:00:38.756Z,18.44
2018-04-28T22:05:40.054Z,18.19
2018-04-28T22:10:41.377Z,18.02
2018-04-28T22:15:42.686Z,18.04
2018-04-28T22:20:44.004Z,17.93
2018-04-28T22:25:45.329Z,17.87
2018-04-28T22:30:46.663Z,17.84
2018-04-28T22:35:48.743Z,17.54
2018-04-28T22:40:50.099Z,17.61
2018-04-28T22:45:51.425Z,17.52
2018-04-28T22:50:52.771Z,17.59
2018-04-28T22:55:54.078Z,17.68
2018-04-28T23:00:55.409Z,17.47
2018-04-28T23:05:56.735Z,17.45
2018-04-28T23:10:58.038Z,17.43
2018-04-28T23:15:59.333Z,17.43
2018-04-28T23:21:00.626Z,17.65
2018-04-28T23:26:01.957Z,17.69
2018-04-28T23:31:03.277Z,17.73
2018-04-28T23:36:04.587Z,17.68
2018-04-28T23:41:05.899Z,17.57
2018-04-28T23:46:07.217Z,17.29
2018-04-28T23:51:08.532Z,17.12
2018-04-28T23:56:09.830Z,17.04
